Hillsboro, West Virginia
Current Conditions -  °F | °C
As of 5:55 PM on Wednesday 22 Oct 2014 (Local Time) from KLWB Reporting Station
Overcast Overcast  
Wind Chill: 47°   Ceiling: 2600
Heat Index: 49°   Visibility: 10mi
Dew Point: 39°   Wind: 7mph
Humidity: 68%   Direction: 320°NW
Pressure: 30.12"   Gusts: NA
Location:  38.14°N, 80.21°W
Report Text: KLWB 222155Z AUTO 32006KT 10SM BKN026 OVC035 10/04 A3012 RMK AO2 T00970040
Loading
Personal Weather Stations






























Interactive Weather Map
Tropical Storm Tracking
New forecast layout! Learn more

10-Day Weather Forecast

Advertisements
Track Severe Weather on mobile